createdAt,value
2018-09-04T00:02:08.377Z,13.55
2018-09-04T00:04:37.913Z,13.52
2018-09-04T00:07:06.873Z,13.51
2018-09-04T00:09:35.735Z,13.53
2018-09-04T00:12:04.572Z,13.50
2018-09-04T00:14:33.818Z,13.51
2018-09-04T00:17:03.566Z,13.51
2018-09-04T00:19:33.426Z,13.49
2018-09-04T00:22:03.810Z,13.52
2018-09-04T00:24:32.725Z,13.55
2018-09-04T00:27:01.619Z,13.58
2018-09-04T00:29:30.400Z,13.60
2018-09-04T00:32:02.426Z,13.64
2018-09-04T00:34:31.355Z,13.69
2018-09-04T00:37:00.245Z,13.70
2018-09-04T00:39:29.663Z,13.69
2018-09-04T00:41:58.461Z,13.69
2018-09-04T00:44:27.369Z,13.72
2018-09-04T00:46:56.531Z,13.74
2018-09-04T00:49:25.413Z,13.76
2018-09-04T00:51:54.464Z,13.78
2018-09-04T00:54:23.314Z,13.83
2018-09-04T00:56:52.472Z,13.84
2018-09-04T00:59:21.334Z,13.89
2018-09-04T01:01:50.192Z,13.92
2018-09-04T01:04:19.068Z,13.94
2018-09-04T01:06:47.951Z,13.96
2018-09-04T01:09:19.330Z,14.02
2018-09-04T01:11:48.200Z,14.04
2018-09-04T01:14:17.494Z,14.08
2018-09-04T01:16:47.243Z,14.13
2018-09-04T01:19:16.052Z,14.15
2018-09-04T01:21:45.341Z,14.17
2018-09-04T01:24:14.178Z,14.21
2018-09-04T01:26:43.616Z,14.24
2018-09-04T01:29:12.613Z,14.24
2018-09-04T01:31:41.958Z,14.27
2018-09-04T01:34:10.861Z,14.28
2018-09-04T01:36:39.735Z,14.31
2018-09-04T01:39:08.628Z,14.31
2018-09-04T01:41:37.721Z,14.34
2018-09-04T01:44:06.611Z,14.33
2018-09-04T01:46:35.480Z,14.36
2018-09-04T01:49:04.385Z,14.37
2018-09-04T01:51:33.254Z,14.39
2018-09-04T01:54:02.393Z,14.40
2018-09-04T01:56:33.117Z,14.41
2018-09-04T01:59:02.024Z,14.41
2018-09-04T02:01:30.868Z,14.43
2018-09-04T02:03:59.731Z,14.44
2018-09-04T02:06:28.561Z,14.44
2018-09-04T02:08:57.424Z,14.45
2018-09-04T02:11:26.295Z,14.48
2018-09-04T02:13:55.500Z,14.51
2018-09-04T02:16:24.480Z,14.52
2018-09-04T02:18:53.569Z,14.53
2018-09-04T02:21:22.388Z,14.53
2018-09-04T02:23:51.197Z,14.53
2018-09-04T02:26:20.043Z,14.55
2018-09-04T02:28:49.257Z,14.54
2018-09-04T02:31:18.092Z,14.56
2018-09-04T02:33:46.926Z,14.55
2018-09-04T02:36:16.097Z,14.55
2018-09-04T02:38:44.967Z,14.56
2018-09-04T02:41:14.405Z,14.55
2018-09-04T02:43:43.280Z,14.56
2018-09-04T02:46:12.157Z,14.56
2018-09-04T02:48:41.809Z,14.56
2018-09-04T02:51:10.688Z,14.58
2018-09-04T02:53:39.591Z,14.59
2018-09-04T02:56:08.528Z,14.63
2018-09-04T02:58:37.822Z,14.65
2018-09-04T03:01:09.555Z,14.66
2018-09-04T03:03:38.434Z,14.64
2018-09-04T03:06:07.318Z,14.65
2018-09-04T03:08:36.182Z,14.67
2018-09-04T03:11:05.076Z,14.68
2018-09-04T03:13:34.413Z,14.68
2018-09-04T03:16:03.226Z,14.68
2018-09-04T03:18:32.076Z,14.68
2018-09-04T03:21:01.013Z,14.69
2018-09-04T03:23:29.841Z,14.69
2018-09-04T03:25:59.122Z,14.72
2018-09-04T03:28:28.008Z,14.76
2018-09-04T03:30:57.253Z,14.77
2018-09-04T03:33:26.140Z,14.80
2018-09-04T03:35:55.040Z,14.81
2018-09-04T03:38:23.905Z,14.83
2018-09-04T03:40:53.169Z,14.85
2018-09-04T03:43:22.120Z,14.86
2018-09-04T03:45:50.920Z,14.89
2018-09-04T03:48:19.888Z,14.90
2018-09-04T03:50:49.739Z,14.92
2018-09-04T03:53:19.370Z,14.91
2018-09-04T03:55:48.202Z,14.95
2018-09-04T03:58:17.060Z,14.94
2018-09-04T04:00:45.884Z,14.96
2018-09-04T04:03:14.767Z,14.97
2018-09-04T04:05:44.316Z,14.97
2018-09-04T04:08:13.138Z,14.97
2018-09-04T04:10:42.006Z,15.00
2018-09-04T04:13:10.893Z,15.01
2018-09-04T04:15:40.181Z,15.01
2018-09-04T04:18:10.737Z,15.01
2018-09-04T04:20:39.704Z,15.02
2018-09-04T04:23:09.589Z,15.02
2018-09-04T04:25:39.135Z,15.01
2018-09-04T04:28:08.200Z,15.03
2018-09-04T04:30:37.085Z,15.04
2018-09-04T04:33:06.566Z,15.03
2018-09-04T04:35:37.113Z,15.04
2018-09-04T04:38:06.002Z,15.06
2018-09-04T04:40:34.886Z,15.08
2018-09-04T04:43:04.242Z,15.08
2018-09-04T04:45:33.104Z,15.10
2018-09-04T04:48:01.933Z,15.11
2018-09-04T04:50:30.768Z,15.11
2018-09-04T04:52:59.549Z,15.11
2018-09-04T04:55:28.397Z,15.12
2018-09-04T04:57:57.573Z,15.13
2018-09-04T05:00:27.430Z,15.13
2018-09-04T05:02:56.404Z,15.12
2018-09-04T05:05:25.306Z,15.14
2018-09-04T05:07:54.187Z,15.15
2018-09-04T05:10:23.003Z,15.16
2018-09-04T05:12:53.869Z,15.17
2018-09-04T05:15:23.229Z,15.18
2018-09-04T05:17:52.020Z,15.20
2018-09-04T05:20:23.148Z,15.20
2018-09-04T05:22:52.379Z,15.22
2018-09-04T05:25:21.308Z,15.23
2018-09-04T05:27:50.167Z,15.24
2018-09-04T05:30:19.295Z,15.27
2018-09-04T05:32:54.292Z,15.28
2018-09-04T05:35:23.195Z,15.29
2018-09-04T05:37:52.097Z,15.31
2018-09-04T05:40:23.074Z,15.31
2018-09-04T05:42:54.476Z,15.34
2018-09-04T05:45:24.952Z,15.35
2018-09-04T05:48:00.351Z,15.36
2018-09-04T05:50:29.263Z,15.38
2018-09-04T05:52:58.481Z,15.34
2018-09-04T05:55:27.673Z,15.36
2018-09-04T05:57:57.591Z,15.39
2018-09-04T06:00:29.915Z,15.40
2018-09-04T06:02:58.782Z,15.41
2018-09-04T06:05:28.072Z,15.42
2018-09-04T06:07:57.516Z,15.43
2018-09-04T06:10:26.336Z,15.46
2018-09-04T06:15:32.285Z,15.44
2018-09-04T06:18:01.301Z,15.44
2018-09-04T06:20:33.672Z,15.45
2018-09-04T06:23:03.405Z,15.46
2018-09-04T06:25:33.416Z,15.49
2018-09-04T06:28:02.373Z,15.54
2018-09-04T06:33:30.584Z,15.58
2018-09-04T06:36:10.640Z,15.63
2018-09-04T06:38:39.432Z,15.63
2018-09-04T06:41:08.244Z,15.66
2018-09-04T06:43:37.105Z,15.70
2018-09-04T06:46:06.345Z,15.77
2018-09-04T06:48:37.266Z,15.82
2018-09-04T06:51:06.129Z,15.85
2018-09-04T06:53:35.019Z,15.85
2018-09-04T06:56:03.844Z,15.90
2018-09-04T06:58:32.775Z,15.93
2018-09-04T07:01:03.837Z,15.98
2018-09-04T07:03:32.704Z,16.03
2018-09-04T07:06:02.406Z,16.10
2018-09-04T07:08:31.613Z,16.20
2018-09-04T07:11:00.489Z,16.19
2018-09-04T07:13:31.091Z,16.28
2018-09-04T07:15:59.896Z,16.35
2018-09-04T07:18:29.785Z,16.42
2018-09-04T07:20:59.258Z,16.50
2018-09-04T07:23:28.493Z,16.63
2018-09-04T07:25:57.299Z,16.71
2018-09-04T07:28:26.607Z,16.73
2018-09-04T07:30:55.566Z,16.73
2018-09-04T07:33:25.428Z,16.79
2018-09-04T07:35:55.287Z,16.82
2018-09-04T07:38:25.412Z,16.82
2018-09-04T07:40:55.905Z,16.94
2018-09-04T07:43:27.352Z,17.05
2018-09-04T07:45:56.510Z,17.20
2018-09-04T07:48:25.688Z,17.33
2018-09-04T07:50:56.441Z,17.49
2018-09-04T07:53:25.877Z,17.61
2018-09-04T07:55:54.704Z,17.74
2018-09-04T07:58:24.454Z,17.88
2018-09-04T08:00:53.336Z,17.94
2018-09-04T08:03:23.333Z,17.92
2018-09-04T08:05:53.198Z,17.85
2018-09-04T08:08:22.668Z,17.85
2018-09-04T08:10:52.435Z,17.85
2018-09-04T08:13:21.276Z,17.88
2018-09-04T08:15:50.686Z,17.89
2018-09-04T08:18:20.529Z,17.87
2018-09-04T08:20:49.493Z,17.90
2018-09-04T08:23:18.328Z,17.87
2018-09-04T08:25:47.175Z,17.85
2018-09-04T08:28:18.533Z,17.93
2018-09-04T08:30:47.461Z,18.05
2018-09-04T08:33:17.135Z,18.10
2018-09-04T08:35:46.552Z,18.12
2018-09-04T08:38:15.412Z,18.12
2018-09-04T08:40:44.511Z,18.11
2018-09-04T08:43:14.090Z,18.10
2018-09-04T08:45:46.235Z,18.17
2018-09-04T08:48:18.190Z,18.29
2018-09-04T08:50:50.611Z,18.40
2018-09-04T08:53:22.454Z,18.61
2018-09-04T08:55:52.494Z,18.77
2018-09-04T08:58:21.328Z,18.82
2018-09-04T09:00:53.722Z,18.87
2018-09-04T09:03:24.943Z,18.88
2018-09-04T09:05:55.781Z,18.86
2018-09-04T09:08:24.710Z,18.96
2018-09-04T09:10:58.562Z,19.03
2018-09-04T09:13:28.497Z,19.07
2018-09-04T09:15:57.847Z,19.10
2018-09-04T09:18:27.522Z,19.02
2018-09-04T09:20:56.341Z,18.94
2018-09-04T09:23:27.998Z,18.95
2018-09-04T09:25:58.980Z,18.99
2018-09-04T09:28:27.819Z,18.92
2018-09-04T09:30:57.181Z,18.97
2018-09-04T09:33:29.491Z,19.06
2018-09-04T09:35:58.459Z,19.15
2018-09-04T09:38:29.820Z,19.22
2018-09-04T09:40:59.357Z,19.37
2018-09-04T09:43:30.061Z,19.42
2018-09-04T09:45:59.216Z,19.42
2018-09-04T09:48:34.362Z,19.53
2018-09-04T09:51:04.446Z,19.64
2018-09-04T09:53:35.322Z,19.70
2018-09-04T09:56:04.035Z,19.73
2018-09-04T09:58:35.142Z,19.78
2018-09-04T10:01:10.281Z,19.90
2018-09-04T10:03:49.300Z,19.97
2018-09-04T10:06:19.431Z,19.99
2018-09-04T10:08:50.421Z,20.14
2018-09-04T10:11:20.062Z,20.09
2018-09-04T10:13:49.424Z,20.05
2018-09-04T10:16:18.755Z,20.10
2018-09-04T10:18:49.185Z,20.15
2018-09-04T10:21:21.684Z,20.19
2018-09-04T10:23:51.724Z,20.32
2018-09-04T10:26:20.668Z,20.43
2018-09-04T10:28:50.768Z,20.42
2018-09-04T10:31:19.713Z,20.45
2018-09-04T10:33:50.072Z,20.44
2018-09-04T10:36:19.473Z,20.60
2018-09-04T10:38:50.901Z,20.63
2018-09-04T10:41:19.789Z,20.71
2018-09-04T10:47:47.558Z,20.86
2018-09-04T10:50:17.105Z,20.87
2018-09-04T10:52:46.961Z,20.98
2018-09-04T10:55:16.487Z,21.00
2018-09-04T10:57:45.457Z,21.11
2018-09-04T11:00:16.712Z,21.15
2018-09-04T11:02:48.038Z,21.14
2018-09-04T11:05:17.505Z,21.09
2018-09-04T11:07:46.409Z,21.09
2018-09-04T11:10:16.669Z,21.06
2018-09-04T11:12:45.653Z,21.04
2018-09-04T11:15:15.285Z,21.07
2018-09-04T11:17:44.836Z,21.32
2018-09-04T11:20:15.386Z,21.55
2018-09-04T11:22:44.573Z,21.65
2018-09-04T11:25:13.801Z,21.71
2018-09-04T11:27:44.043Z,21.81
2018-09-04T11:30:14.168Z,21.66
2018-09-04T11:32:43.609Z,21.53
2018-09-04T11:35:14.006Z,21.50
2018-09-04T11:37:42.889Z,21.62
2018-09-04T11:40:12.568Z,21.56
2018-09-04T11:42:42.256Z,21.46
2018-09-04T11:45:11.603Z,21.45
2018-09-04T11:47:42.692Z,21.56
2018-09-04T11:50:12.223Z,21.67
2018-09-04T11:52:42.228Z,21.85
2018-09-04T11:55:12.623Z,21.97
2018-09-04T11:57:44.811Z,21.94
2018-09-04T12:00:17.924Z,21.73
2018-09-04T12:02:49.349Z,21.62
2018-09-04T12:05:18.534Z,21.60
2018-09-04T12:07:51.880Z,21.63
2018-09-04T12:10:21.592Z,21.69
2018-09-04T12:12:51.707Z,21.69
2018-09-04T12:15:21.096Z,21.60
2018-09-04T12:17:50.003Z,21.65
2018-09-04T12:21:11.957Z,21.76
2018-09-04T12:23:41.125Z,21.89
2018-09-04T12:26:11.902Z,21.97
2018-09-04T12:28:42.942Z,22.06
2018-09-04T12:31:13.216Z,21.94
2018-09-04T12:33:43.283Z,21.99
2018-09-04T12:36:12.118Z,21.98
2018-09-04T12:38:42.914Z,21.90
2018-09-04T12:41:14.770Z,21.96
2018-09-04T12:43:43.706Z,22.08
2018-09-04T12:46:13.120Z,22.23
2018-09-04T12:48:48.272Z,22.20
2018-09-04T12:51:18.373Z,22.13
2018-09-04T12:53:47.632Z,22.06
2018-09-04T12:56:22.481Z,22.07
2018-09-04T12:58:51.442Z,21.98
2018-09-04T13:01:20.596Z,21.91
2018-09-04T13:03:50.190Z,22.03
2018-09-04T13:06:19.839Z,21.98
2018-09-04T13:08:48.730Z,21.91
2018-09-04T13:11:17.595Z,21.85
2018-09-04T13:13:47.288Z,21.92
2018-09-04T13:16:17.608Z,22.07
2018-09-04T13:18:47.239Z,22.16
2018-09-04T13:21:20.317Z,22.16
2018-09-04T13:23:54.151Z,22.19
2018-09-04T13:26:23.125Z,22.17
2018-09-04T13:28:52.975Z,22.14
2018-09-04T13:31:21.838Z,22.02
2018-09-04T13:33:52.008Z,21.99
2018-09-04T13:36:21.833Z,22.08
2018-09-04T13:38:50.709Z,22.27
2018-09-04T13:41:23.217Z,22.34
2018-09-04T13:43:53.306Z,22.37
2018-09-04T13:46:26.374Z,22.39
2018-09-04T13:48:57.379Z,22.36
2018-09-04T13:51:26.825Z,22.32
2018-09-04T13:53:56.678Z,22.40
2018-09-04T13:56:32.564Z,22.48
2018-09-04T13:59:04.543Z,22.43
2018-09-04T14:01:34.407Z,22.32
2018-09-04T14:04:05.308Z,22.26
2018-09-04T14:06:34.507Z,22.34
2018-09-04T14:09:10.760Z,22.47
2018-09-04T14:11:42.499Z,22.58
2018-09-04T14:14:12.560Z,22.69
2018-09-04T14:16:43.148Z,22.90
2018-09-04T14:19:10.727Z,23.03
2018-09-04T14:21:40.272Z,23.13
2018-09-04T14:24:09.460Z,23.19
2018-09-04T14:26:40.329Z,23.06
2018-09-04T14:29:10.513Z,23.09
2018-09-04T14:31:39.436Z,23.08
2018-09-04T14:34:08.856Z,23.01
2018-09-04T14:36:38.658Z,22.96
2018-09-04T14:39:10.426Z,23.02
2018-09-04T14:41:39.377Z,23.09
2018-09-04T14:44:09.652Z,23.16
2018-09-04T14:46:41.148Z,23.17
2018-09-04T14:49:10.052Z,23.08
2018-09-04T14:51:39.432Z,23.20
2018-09-04T14:54:09.510Z,23.31
2018-09-04T14:56:38.757Z,23.26
2018-09-04T14:59:08.309Z,23.34
2018-09-04T15:01:37.552Z,23.25
2018-09-04T15:04:06.624Z,23.29
2018-09-04T15:06:38.992Z,23.16
2018-09-04T15:09:07.884Z,23.08
2018-09-04T15:11:36.664Z,23.09
2018-09-04T15:14:07.139Z,23.06
2018-09-04T15:16:36.404Z,23.10
2018-09-04T15:19:05.988Z,23.17
2018-09-04T15:21:34.852Z,23.14
2018-09-04T15:24:03.956Z,23.13
2018-09-04T15:26:34.269Z,23.12
2018-09-04T15:29:06.210Z,23.08
2018-09-04T15:31:41.285Z,23.03
2018-09-04T15:34:10.738Z,22.94
2018-09-04T15:36:40.216Z,22.93
2018-09-04T15:39:09.044Z,22.89
2018-09-04T15:41:37.987Z,22.89
2018-09-04T15:44:06.832Z,22.71
2018-09-04T15:46:36.084Z,22.67
2018-09-04T15:49:10.358Z,22.61
2018-09-04T15:51:39.181Z,22.60
2018-09-04T15:54:09.124Z,22.52
2018-09-04T15:56:38.016Z,22.54
2018-09-04T15:59:07.509Z,22.38
2018-09-04T16:01:36.408Z,22.31
2018-09-04T16:04:05.420Z,22.30
2018-09-04T16:06:36.536Z,22.31
2018-09-04T16:09:08.397Z,22.30
2018-09-04T16:11:38.844Z,22.21
2018-09-04T16:14:10.779Z,22.18
2018-09-04T16:16:50.171Z,22.16
2018-09-04T16:19:26.838Z,22.08
2018-09-04T16:22:00.955Z,22.03
2018-09-04T16:24:34.198Z,21.96
2018-09-04T16:27:05.518Z,21.89
2018-09-04T16:32:54.552Z,21.73
2018-09-04T16:35:24.370Z,21.63
2018-09-04T16:37:57.709Z,21.62
2018-09-04T16:40:26.512Z,21.57
2018-09-04T16:42:59.190Z,21.48
2018-09-04T16:45:28.182Z,21.39
2018-09-04T16:48:01.217Z,21.33
2018-09-04T16:50:31.709Z,21.30
2018-09-04T16:53:01.105Z,21.24
2018-09-04T16:55:34.608Z,21.16
2018-09-04T16:58:03.548Z,21.08
2018-09-04T17:00:33.388Z,21.00
2018-09-04T17:03:05.076Z,20.93
2018-09-04T17:05:34.693Z,20.87
2018-09-04T17:08:07.180Z,20.80
2018-09-04T17:10:41.224Z,20.71
2018-09-04T17:13:11.501Z,20.63
2018-09-04T17:15:41.562Z,20.54
2018-09-04T17:18:12.252Z,20.51
2018-09-04T17:20:42.397Z,20.40
2018-09-04T17:23:13.625Z,20.34
2018-09-04T17:25:43.506Z,20.26
2018-09-04T17:28:13.637Z,20.14
2018-09-04T17:30:43.214Z,20.08
2018-09-04T17:33:12.967Z,19.91
2018-09-04T17:35:46.657Z,19.75
2018-09-04T17:38:27.198Z,19.66
2018-09-04T17:40:59.732Z,19.55
2018-09-04T17:43:44.160Z,19.50
2018-09-04T17:46:13.439Z,19.38
2018-09-04T17:48:44.256Z,19.26
2018-09-04T17:51:17.374Z,19.11
2018-09-04T17:53:46.265Z,18.98
2018-09-04T17:56:19.204Z,18.84
2018-09-04T17:58:49.649Z,18.73
2018-09-04T18:01:19.479Z,18.61
2018-09-04T18:03:52.959Z,18.49
2018-09-04T18:06:36.062Z,18.35
2018-09-04T18:09:08.284Z,18.25
2018-09-04T18:11:37.806Z,18.13
2018-09-04T18:14:07.225Z,18.04
2018-09-04T18:16:36.164Z,17.96
2018-09-04T18:19:05.459Z,17.89
2018-09-04T18:24:30.466Z,17.73
2018-09-04T18:26:59.411Z,17.66
2018-09-04T18:29:28.272Z,17.62
2018-09-04T18:31:58.047Z,17.58
2018-09-04T18:34:27.907Z,17.50
2018-09-04T18:37:01.318Z,17.42
2018-09-04T18:39:31.763Z,17.35
2018-09-04T18:42:00.747Z,17.28
2018-09-04T18:44:31.331Z,17.21
2018-09-04T18:47:00.621Z,17.13
2018-09-04T18:49:30.809Z,17.05
2018-09-04T18:51:59.715Z,16.99
2018-09-04T18:57:05.225Z,16.87
2018-09-04T18:59:34.279Z,16.81
2018-09-04T19:02:04.138Z,16.75
2018-09-04T19:04:32.985Z,16.69
2018-09-04T19:07:02.133Z,16.66
2018-09-04T19:10:03.605Z,16.60
2018-09-04T19:12:34.079Z,16.53
2018-09-04T19:15:02.949Z,16.49
2018-09-04T19:17:32.312Z,16.45
2018-09-04T19:20:01.813Z,16.39
2018-09-04T19:22:31.909Z,16.36
2018-09-04T19:25:00.751Z,16.29
2018-09-04T19:27:30.604Z,16.21
2018-09-04T19:30:02.617Z,16.16
2018-09-04T19:32:32.612Z,16.12
2018-09-04T19:35:02.812Z,16.09
2018-09-04T19:37:31.622Z,16.05
2018-09-04T19:40:00.514Z,16.03
2018-09-04T19:42:29.376Z,15.99
2018-09-04T19:45:00.412Z,15.96
2018-09-04T19:47:30.449Z,15.90
2018-09-04T19:50:01.648Z,15.86
2018-09-04T19:52:30.563Z,15.81
2018-09-04T19:55:00.885Z,15.76
2018-09-04T19:57:31.995Z,15.71
2018-09-04T20:00:00.837Z,15.69
2018-09-04T20:02:31.549Z,15.66
2018-09-04T20:05:00.490Z,15.62
2018-09-04T20:07:30.663Z,15.56
2018-09-04T20:09:59.706Z,15.52
2018-09-04T20:12:29.186Z,15.50
2018-09-04T20:15:02.345Z,15.44
2018-09-04T20:17:31.475Z,15.38
2018-09-04T20:20:01.750Z,15.34
2018-09-04T20:22:31.130Z,15.34
2018-09-04T20:25:00.530Z,15.31
2018-09-04T20:27:29.337Z,15.27
2018-09-04T20:29:58.697Z,15.25
2018-09-04T20:32:30.663Z,15.22
2018-09-04T20:34:59.782Z,15.18
2018-09-04T20:37:29.452Z,15.14
2018-09-04T20:39:58.331Z,15.13
2018-09-04T20:42:27.687Z,15.10
2018-09-04T20:44:58.405Z,15.09
2018-09-04T20:47:27.257Z,15.08
2018-09-04T20:49:57.765Z,15.05
2018-09-04T20:52:28.992Z,15.01
2018-09-04T20:54:57.886Z,14.99
2018-09-04T20:57:47.281Z,14.95
2018-09-04T21:00:27.398Z,14.92
2018-09-04T21:03:08.704Z,14.88
2018-09-04T21:05:48.492Z,14.84
2018-09-04T21:08:23.513Z,14.81
2018-09-04T21:10:58.658Z,14.77
2018-09-04T21:14:01.189Z,14.79
2018-09-04T21:16:32.412Z,14.75
2018-09-04T21:19:03.185Z,14.70
2018-09-04T21:21:37.847Z,14.70
2018-09-04T21:24:08.489Z,14.71
2018-09-04T21:26:39.222Z,14.70
2018-09-04T21:29:14.143Z,14.69
2018-09-04T21:31:43.982Z,14.64
2018-09-04T21:34:14.318Z,14.61
2018-09-04T21:36:43.173Z,14.62
2018-09-04T21:39:14.851Z,14.61
2018-09-04T21:41:45.290Z,14.58
2018-09-04T21:44:14.519Z,14.57
2018-09-04T21:46:43.394Z,14.54
2018-09-04T21:49:12.472Z,14.52
2018-09-04T21:51:48.588Z,14.48
2018-09-04T21:54:17.516Z,14.47
2018-09-04T21:56:46.414Z,14.42
2018-09-04T21:59:17.278Z,14.41
2018-09-04T22:01:48.346Z,14.42
2018-09-04T22:04:18.472Z,14.39
2018-09-04T22:06:48.333Z,14.35
2018-09-04T22:09:18.284Z,14.30
2018-09-04T22:11:49.310Z,14.27
2018-09-04T22:14:19.333Z,14.26
2018-09-04T22:16:48.744Z,14.23
2018-09-04T22:20:33.129Z,14.18
2018-09-04T22:23:02.898Z,14.18
2018-09-04T22:25:32.609Z,14.18
2018-09-04T22:28:02.577Z,14.18
2018-09-04T22:30:31.703Z,14.15
2018-09-04T22:33:00.559Z,14.16
2018-09-04T22:35:29.988Z,14.15
2018-09-04T22:37:59.886Z,14.13
2018-09-04T22:40:28.731Z,14.13
2018-09-04T22:42:58.962Z,14.15
2018-09-04T22:45:27.868Z,14.07
2018-09-04T22:47:57.849Z,14.06
2018-09-04T22:50:32.205Z,14.08
2018-09-04T22:53:01.097Z,14.04
2018-09-04T22:55:29.909Z,14.03
2018-09-04T22:58:00.362Z,14.02
2018-09-04T23:00:30.492Z,13.98
2018-09-04T23:02:59.320Z,13.94
2018-09-04T23:05:28.897Z,13.91
2018-09-04T23:07:57.727Z,13.91
2018-09-04T23:10:26.540Z,13.86
2018-09-04T23:12:55.403Z,13.80
2018-09-04T23:15:24.276Z,13.81
2018-09-04T23:17:53.476Z,13.81
2018-09-04T23:20:22.334Z,13.83
2018-09-04T23:22:51.154Z,13.74
2018-09-04T23:25:20.317Z,13.72
2018-09-04T23:27:49.161Z,13.70
2018-09-04T23:30:17.957Z,13.66
2018-09-04T23:32:47.215Z,13.65
2018-09-04T23:35:17.414Z,13.60
2018-09-04T23:37:48.157Z,13.59
2018-09-04T23:40:17.046Z,13.58
2018-09-04T23:42:47.055Z,13.56
2018-09-04T23:45:17.459Z,13.55
2018-09-04T23:47:47.011Z,13.51
2018-09-04T23:50:16.216Z,13.49
2018-09-04T23:52:45.087Z,13.44
2018-09-04T23:55:13.926Z,13.42
2018-09-04T23:57:43.728Z,13.37
